createdAt,value
2023-04-02T00:00:21.431Z,0.33
2023-04-02T00:00:52.843Z,0.36
2023-04-02T00:01:24.269Z,0.29
2023-04-02T00:01:55.718Z,0.24
2023-04-02T00:02:27.377Z,0.47
2023-04-02T00:02:59.047Z,0.37
2023-04-02T00:03:30.627Z,0.28
2023-04-02T00:04:02.084Z,0.38
2023-04-02T00:04:33.505Z,0.31
2023-04-02T00:05:06.485Z,0.35
2023-04-02T00:05:38.097Z,0.27
2023-04-02T00:06:09.556Z,0.27
2023-04-02T00:06:40.951Z,0.19
2023-04-02T00:07:12.338Z,0.11
2023-04-02T00:07:43.750Z,0.35
2023-04-02T00:08:15.145Z,0.40
2023-04-02T00:08:46.538Z,0.43
2023-04-02T00:09:17.951Z,0.45
2023-04-02T00:09:49.360Z,0.35
2023-04-02T00:10:20.758Z,0.59
2023-04-02T00:10:52.182Z,0.34
2023-04-02T00:11:23.603Z,0.52
2023-04-02T00:11:55.020Z,0.29
2023-04-02T00:12:26.462Z,0.26
2023-04-02T00:12:57.904Z,0.25
2023-04-02T00:13:29.294Z,0.21
2023-04-02T00:14:00.688Z,0.38
2023-04-02T00:14:32.097Z,0.31
2023-04-02T00:15:03.514Z,0.20
2023-04-02T00:15:35.109Z,0.29
2023-04-02T00:16:06.706Z,0.25
2023-04-02T00:16:38.219Z,0.29
2023-04-02T00:17:09.648Z,0.20
2023-04-02T00:17:41.070Z,0.28
2023-04-02T00:18:12.524Z,0.30
2023-04-02T00:18:43.945Z,0.22
2023-04-02T00:19:15.348Z,0.34
2023-04-02T00:19:46.759Z,0.23
2023-04-02T00:20:18.177Z,0.36
2023-04-02T00:20:49.588Z,0.52
2023-04-02T00:21:21.039Z,0.40
2023-04-02T00:21:52.508Z,0.25
2023-04-02T00:22:23.906Z,0.25
2023-04-02T00:22:55.313Z,0.28
2023-04-02T00:23:26.786Z,0.44
2023-04-02T00:23:58.202Z,0.36
2023-04-02T00:24:29.626Z,0.26
2023-04-02T00:25:01.031Z,0.32
2023-04-02T00:25:32.654Z,0.27
2023-04-02T00:26:04.131Z,0.15
2023-04-02T00:26:35.552Z,0.21
2023-04-02T00:27:06.941Z,0.38
2023-04-02T00:27:38.335Z,0.41
2023-04-02T00:28:09.730Z,0.44
2023-04-02T00:28:41.150Z,0.47
2023-04-02T00:29:12.610Z,0.30
2023-04-02T00:29:44.011Z,0.30
2023-04-02T00:30:15.418Z,0.34
2023-04-02T00:30:46.817Z,0.39
2023-04-02T00:31:18.233Z,0.37
2023-04-02T00:31:49.697Z,0.45
2023-04-02T00:32:21.356Z,0.30
2023-04-02T00:32:52.845Z,0.72
2023-04-02T00:33:24.296Z,0.39
2023-04-02T00:33:55.758Z,0.29
2023-04-02T00:34:27.164Z,0.34
2023-04-02T00:34:58.576Z,0.45
2023-04-02T00:35:29.985Z,0.36
2023-04-02T00:36:01.447Z,0.18
2023-04-02T00:36:32.863Z,0.38
2023-04-02T00:37:04.273Z,0.35
2023-04-02T00:37:35.682Z,0.15
2023-04-02T00:38:07.093Z,0.28
2023-04-02T00:38:38.485Z,0.15
2023-04-02T00:39:09.915Z,0.21
2023-04-02T00:39:41.327Z,0.15
2023-04-02T00:40:12.741Z,0.43
2023-04-02T00:40:44.148Z,0.36
2023-04-02T00:41:15.561Z,0.27
2023-04-02T00:41:47.007Z,0.19
2023-04-02T00:42:18.464Z,0.33
2023-04-02T00:42:49.879Z,0.64
2023-04-02T00:43:21.266Z,0.42
2023-04-02T00:43:52.658Z,0.35
2023-04-02T00:44:24.094Z,0.28
2023-04-02T00:44:55.487Z,0.39
2023-04-02T00:45:26.873Z,0.24
2023-04-02T00:45:58.319Z,0.52
2023-04-02T00:46:29.830Z,0.42
2023-04-02T00:47:01.263Z,0.24
2023-04-02T00:47:32.718Z,0.37
2023-04-02T00:48:04.178Z,0.48
2023-04-02T00:48:35.647Z,0.27
2023-04-02T00:49:07.088Z,0.37
2023-04-02T00:49:38.494Z,0.26
2023-04-02T00:50:09.911Z,0.22
2023-04-02T00:50:41.297Z,0.28
2023-04-02T00:51:12.722Z,0.27
2023-04-02T00:51:44.105Z,0.32
2023-04-02T00:52:15.512Z,0.63
2023-04-02T00:52:46.958Z,0.25
2023-04-02T00:53:18.370Z,0.35
2023-04-02T00:53:49.792Z,0.27
2023-04-02T00:54:21.240Z,0.29
2023-04-02T00:54:52.640Z,0.30
2023-04-02T00:55:24.237Z,0.64
2023-04-02T00:55:55.645Z,0.37
2023-04-02T00:56:27.073Z,0.22
2023-04-02T00:56:58.570Z,0.34
2023-04-02T00:57:30.094Z,0.34
2023-04-02T00:58:01.519Z,0.35
2023-04-02T00:58:32.923Z,0.33
2023-04-02T00:59:04.313Z,0.20
2023-04-02T00:59:35.822Z,0.26
2023-04-02T01:00:07.346Z,0.14
2023-04-02T01:00:38.761Z,0.30
2023-04-02T01:01:10.196Z,0.20
2023-04-02T01:01:41.699Z,0.08
2023-04-02T01:02:13.125Z,0.17
2023-04-02T01:02:44.729Z,0.23
2023-04-02T01:03:16.470Z,0.29
2023-04-02T01:03:48.284Z,0.34
2023-04-02T01:04:19.778Z,0.21
2023-04-02T01:04:51.265Z,0.37
2023-04-02T01:05:22.736Z,0.37
2023-04-02T01:05:54.293Z,0.21
2023-04-02T01:06:25.685Z,0.37
2023-04-02T01:06:57.100Z,0.24
2023-04-02T01:07:28.541Z,0.26
2023-04-02T01:07:59.956Z,0.25
2023-04-02T01:08:31.368Z,0.22
2023-04-02T01:09:02.765Z,0.28
2023-04-02T01:09:34.210Z,0.26
2023-04-02T01:10:05.605Z,0.14
2023-04-02T01:10:37.018Z,0.12
2023-04-02T01:11:08.421Z,0.23
2023-04-02T01:11:39.837Z,0.50
2023-04-02T01:12:11.243Z,0.35
2023-04-02T01:12:42.646Z,0.19
2023-04-02T01:13:14.053Z,0.33
2023-04-02T01:13:45.483Z,0.21
2023-04-02T01:14:16.884Z,0.20
2023-04-02T01:14:48.294Z,0.25
2023-04-02T01:15:19.695Z,0.25
2023-04-02T01:15:51.097Z,0.27
2023-04-02T01:16:22.555Z,0.38
2023-04-02T01:16:54.052Z,0.19
2023-04-02T01:17:25.537Z,0.25
2023-04-02T01:17:57.026Z,0.32
2023-04-02T01:18:28.498Z,0.30
2023-04-02T01:18:59.913Z,0.23
2023-04-02T01:19:31.298Z,0.20
2023-04-02T01:20:02.741Z,0.22
2023-04-02T01:20:34.149Z,0.34
2023-04-02T01:21:05.555Z,0.37
2023-04-02T01:21:36.960Z,0.17
2023-04-02T01:22:08.381Z,0.18
2023-04-02T01:22:39.781Z,0.22
2023-04-02T01:23:11.187Z,0.19
2023-04-02T01:23:42.591Z,0.18
2023-04-02T01:24:14.013Z,0.38
2023-04-02T01:24:45.412Z,0.15
2023-04-02T01:25:16.846Z,0.34
2023-04-02T01:25:48.264Z,0.24
2023-04-02T01:26:19.670Z,0.25
2023-04-02T01:26:51.086Z,0.28
2023-04-02T01:27:22.560Z,0.35
2023-04-02T01:27:53.973Z,0.33
2023-04-02T01:28:25.378Z,0.18
2023-04-02T01:28:56.771Z,0.17
2023-04-02T01:29:28.215Z,0.22
2023-04-02T01:29:59.603Z,0.29
2023-04-02T01:30:31.036Z,0.32
2023-04-02T01:31:02.517Z,0.19
2023-04-02T01:31:33.948Z,0.12
2023-04-02T01:32:05.385Z,0.14
2023-04-02T01:32:36.842Z,0.31
2023-04-02T01:33:08.320Z,0.25
2023-04-02T01:33:39.773Z,0.25
2023-04-02T01:34:11.164Z,0.17
2023-04-02T01:34:42.583Z,0.15
2023-04-02T01:35:13.993Z,0.20
2023-04-02T01:35:45.494Z,0.23
2023-04-02T01:36:16.906Z,0.20
2023-04-02T01:36:48.316Z,0.15
2023-04-02T01:37:19.705Z,0.22
2023-04-02T01:37:51.102Z,0.12
2023-04-02T01:38:22.516Z,0.26
2023-04-02T01:38:53.916Z,0.21
2023-04-02T01:39:25.341Z,0.34
2023-04-02T01:39:56.757Z,0.29
2023-04-02T01:40:28.165Z,0.29
2023-04-02T01:40:59.577Z,0.20
2023-04-02T01:41:30.992Z,0.04
2023-04-02T01:42:02.401Z,0.35
2023-04-02T01:42:33.804Z,0.20
2023-04-02T01:43:05.204Z,0.18
2023-04-02T01:43:36.607Z,0.16
2023-04-02T01:44:08.008Z,0.28
2023-04-02T01:44:39.435Z,0.20
2023-04-02T01:45:10.851Z,0.19
2023-04-02T01:45:42.260Z,0.29
2023-04-02T01:46:13.668Z,0.38
2023-04-02T01:46:45.118Z,0.28
2023-04-02T01:47:16.566Z,0.25
2023-04-02T01:47:47.997Z,0.22
2023-04-02T01:48:19.460Z,0.14
2023-04-02T01:48:50.866Z,0.51
2023-04-02T01:49:22.276Z,0.31
2023-04-02T01:49:53.759Z,0.21
2023-04-02T01:50:25.166Z,0.14
2023-04-02T01:50:56.565Z,0.21
2023-04-02T01:51:27.963Z,0.20
2023-04-02T01:51:59.367Z,0.23
2023-04-02T01:52:30.781Z,0.15
2023-04-02T01:53:02.204Z,0.27
2023-04-02T01:53:33.600Z,0.28
2023-04-02T01:54:05.023Z,0.22
2023-04-02T01:54:36.414Z,0.22
2023-04-02T01:55:07.810Z,0.24
2023-04-02T01:55:39.227Z,0.19
2023-04-02T01:56:10.626Z,0.18
2023-04-02T01:56:42.067Z,0.25
2023-04-02T01:57:13.603Z,0.25
2023-04-02T01:57:45.171Z,0.22
2023-04-02T01:58:16.573Z,0.12
2023-04-02T01:58:47.982Z,0.24
2023-04-02T01:59:19.379Z,0.15
2023-04-02T01:59:50.778Z,0.20
2023-04-02T02:00:22.190Z,0.11
2023-04-02T02:00:53.602Z,0.24
2023-04-02T02:01:25.068Z,0.30
2023-04-02T02:01:56.527Z,0.36
2023-04-02T02:02:27.954Z,0.24
2023-04-02T02:02:59.467Z,0.19
2023-04-02T02:03:30.925Z,0.15
2023-04-02T02:04:02.337Z,0.28
2023-04-02T02:04:33.726Z,0.26
2023-04-02T02:05:05.114Z,0.33
2023-04-02T02:05:36.892Z,0.34
2023-04-02T02:06:08.480Z,0.32
2023-04-02T02:06:39.908Z,0.29
2023-04-02T02:07:11.309Z,0.34
2023-04-02T02:07:42.704Z,0.45
2023-04-02T02:08:14.090Z,0.23
2023-04-02T02:08:45.502Z,0.16
2023-04-02T02:09:16.888Z,0.22
2023-04-02T02:09:48.297Z,0.22
2023-04-02T02:10:19.705Z,0.18
2023-04-02T02:10:51.141Z,0.21
2023-04-02T02:11:22.535Z,0.37
2023-04-02T02:11:53.971Z,0.26
2023-04-02T02:12:25.410Z,0.30
2023-04-02T02:12:56.803Z,0.34
2023-04-02T02:13:28.211Z,0.18
2023-04-02T02:13:59.629Z,0.15
2023-04-02T02:14:31.013Z,0.14
2023-04-02T02:15:02.400Z,0.40
2023-04-02T02:15:33.934Z,0.31
2023-04-02T02:16:05.659Z,0.33
2023-04-02T02:16:37.082Z,0.27
2023-04-02T02:17:08.527Z,0.28
2023-04-02T02:17:39.958Z,0.19
2023-04-02T02:18:11.382Z,0.14
2023-04-02T02:18:42.789Z,0.24
2023-04-02T02:19:14.178Z,0.21
2023-04-02T02:19:45.602Z,0.35
2023-04-02T02:20:17.034Z,0.23
2023-04-02T02:20:48.465Z,0.15
2023-04-02T02:21:19.881Z,0.23
2023-04-02T02:21:51.287Z,0.29
2023-04-02T02:22:22.711Z,0.32
2023-04-02T02:22:54.108Z,0.26
2023-04-02T02:23:25.520Z,0.17
2023-04-02T02:23:56.921Z,0.15
2023-04-02T02:24:28.325Z,0.22
2023-04-02T02:24:59.734Z,0.20
2023-04-02T02:25:31.135Z,0.29
2023-04-02T02:26:02.552Z,0.26
2023-04-02T02:26:33.998Z,0.17
2023-04-02T02:27:05.432Z,0.33
2023-04-02T02:27:36.902Z,0.34
2023-04-02T02:28:08.286Z,0.33
2023-04-02T02:28:39.679Z,0.28
2023-04-02T02:29:11.092Z,0.17
2023-04-02T02:29:42.482Z,0.27
2023-04-02T02:30:13.895Z,0.15
2023-04-02T02:30:45.349Z,0.29
2023-04-02T02:31:16.745Z,0.29
2023-04-02T02:31:48.210Z,0.16
2023-04-02T02:32:19.630Z,0.36
2023-04-02T02:32:51.138Z,0.25
2023-04-02T02:33:22.601Z,0.27
2023-04-02T02:33:54.002Z,0.22
2023-04-02T02:34:25.406Z,0.21
2023-04-02T02:34:56.794Z,0.32
2023-04-02T02:35:28.207Z,0.21
2023-04-02T02:35:59.621Z,0.34
2023-04-02T02:36:31.042Z,0.18
2023-04-02T02:37:02.443Z,0.28
2023-04-02T02:37:33.894Z,0.21
2023-04-02T02:38:05.321Z,0.24
2023-04-02T02:38:36.717Z,0.28
2023-04-02T02:39:08.114Z,0.22
2023-04-02T02:39:39.510Z,0.19
2023-04-02T02:40:10.926Z,0.34
2023-04-02T02:40:42.333Z,0.44
2023-04-02T02:41:13.743Z,0.24
2023-04-02T02:41:45.438Z,0.17
2023-04-02T02:42:16.862Z,0.10
2023-04-02T02:42:48.269Z,0.15
2023-04-02T02:43:19.682Z,0.22
2023-04-02T02:43:51.074Z,0.24
2023-04-02T02:44:22.470Z,0.23
2023-04-02T02:44:53.874Z,0.31
2023-04-02T02:45:25.273Z,0.37
2023-04-02T02:45:56.735Z,0.22
2023-04-02T02:46:28.231Z,0.27
2023-04-02T02:46:59.717Z,0.33
2023-04-02T02:47:31.153Z,0.39
2023-04-02T02:48:02.630Z,0.31
2023-04-02T02:48:34.089Z,0.24
2023-04-02T02:49:05.482Z,0.34
2023-04-02T02:49:36.882Z,0.45
2023-04-02T02:50:08.298Z,0.22
2023-04-02T02:50:39.702Z,0.28
2023-04-02T02:51:11.350Z,0.28
2023-04-02T02:51:43.118Z,0.23
2023-04-02T02:52:14.551Z,0.38
2023-04-02T02:52:45.937Z,0.18
2023-04-02T02:53:17.328Z,0.23
2023-04-02T02:53:48.718Z,0.06
2023-04-02T02:54:20.141Z,0.24
2023-04-02T02:54:51.554Z,0.22
2023-04-02T02:55:22.971Z,0.17
2023-04-02T02:55:54.398Z,0.13
2023-04-02T02:56:25.826Z,0.13
2023-04-02T02:56:57.295Z,0.37
2023-04-02T02:57:28.889Z,0.17
2023-04-02T02:58:00.466Z,0.18
2023-04-02T02:58:31.867Z,0.16
2023-04-02T02:59:03.266Z,0.33
2023-04-02T02:59:34.668Z,0.19
2023-04-02T03:00:06.077Z,0.17
2023-04-02T03:00:37.491Z,0.37
2023-04-02T03:01:08.933Z,0.20
2023-04-02T03:01:40.524Z,0.20
2023-04-02T03:02:12.018Z,0.24
2023-04-02T03:02:43.667Z,0.16
2023-04-02T03:03:15.284Z,0.18
2023-04-02T03:03:47.108Z,0.28
2023-04-02T03:04:19.047Z,0.21
2023-04-02T03:04:50.521Z,0.12
2023-04-02T03:05:21.933Z,0.17
2023-04-02T03:05:53.358Z,0.19
2023-04-02T03:06:24.757Z,0.10
2023-04-02T03:06:56.157Z,0.17
2023-04-02T03:07:27.585Z,0.39
2023-04-02T03:07:58.979Z,0.12
2023-04-02T03:08:30.390Z,0.20
2023-04-02T03:09:01.794Z,0.14
2023-04-02T03:09:33.216Z,0.27
2023-04-02T03:10:04.652Z,0.40
2023-04-02T03:10:36.061Z,0.21
2023-04-02T03:11:07.461Z,0.19
2023-04-02T03:11:38.866Z,0.22
2023-04-02T03:12:10.258Z,0.17
2023-04-02T03:12:41.682Z,0.16
2023-04-02T03:13:13.113Z,0.12
2023-04-02T03:13:44.531Z,0.09
2023-04-02T03:14:15.931Z,0.17
2023-04-02T03:14:47.336Z,0.26
2023-04-02T03:15:18.742Z,0.15
2023-04-02T03:15:50.168Z,0.32
2023-04-02T03:16:21.623Z,0.16
2023-04-02T03:16:53.056Z,0.16
2023-04-02T03:17:24.555Z,0.14
2023-04-02T03:17:56.043Z,0.05
2023-04-02T03:18:27.504Z,0.20
2023-04-02T03:18:58.907Z,0.15
2023-04-02T03:19:30.327Z,0.15
2023-04-02T03:20:01.835Z,0.17
2023-04-02T03:20:33.259Z,0.21
2023-04-02T03:21:04.645Z,0.18
2023-04-02T03:21:36.045Z,0.36
2023-04-02T03:22:07.466Z,0.25
2023-04-02T03:22:38.943Z,0.21
2023-04-02T03:23:10.358Z,0.22
2023-04-02T03:23:41.747Z,0.26
2023-04-02T03:24:13.153Z,0.19
2023-04-02T03:24:44.569Z,0.10
2023-04-02T03:25:15.976Z,0.14
2023-04-02T03:25:47.393Z,0.24
2023-04-02T03:26:18.816Z,0.17
2023-04-02T03:26:50.210Z,0.17
2023-04-02T03:27:21.620Z,0.42
2023-04-02T03:27:53.073Z,0.24
2023-04-02T03:28:24.471Z,0.29
2023-04-02T03:28:55.881Z,0.19
2023-04-02T03:29:27.343Z,0.31
2023-04-02T03:29:58.745Z,0.22
2023-04-02T03:30:30.183Z,0.18
2023-04-02T03:31:01.653Z,0.10
2023-04-02T03:31:33.155Z,0.27
2023-04-02T03:32:04.584Z,0.24
2023-04-02T03:32:36.005Z,0.13
2023-04-02T03:33:07.456Z,0.13
2023-04-02T03:33:38.910Z,0.37
2023-04-02T03:34:10.318Z,0.35
2023-04-02T03:34:41.737Z,0.22
2023-04-02T03:35:13.145Z,0.20
2023-04-02T03:35:44.573Z,0.16
2023-04-02T03:36:16.010Z,0.25
2023-04-02T03:36:47.482Z,0.15
2023-04-02T03:37:18.885Z,0.17
2023-04-02T03:37:50.334Z,0.14
2023-04-02T03:38:21.743Z,0.28
2023-04-02T03:38:53.161Z,0.25
2023-04-02T03:39:24.551Z,0.30
2023-04-02T03:39:55.963Z,0.26
2023-04-02T03:40:27.399Z,0.19
2023-04-02T03:40:58.825Z,0.17
2023-04-02T03:41:30.228Z,0.36
2023-04-02T03:42:01.637Z,0.20
2023-04-02T03:42:33.054Z,0.22
2023-04-02T03:43:04.503Z,0.25
2023-04-02T03:43:35.941Z,0.06
2023-04-02T03:44:07.354Z,0.28
2023-04-02T03:44:38.751Z,0.31
2023-04-02T03:45:10.173Z,0.19
2023-04-02T03:45:41.585Z,0.26
2023-04-02T03:46:13.075Z,0.23
2023-04-02T03:46:44.612Z,0.29
2023-04-02T03:47:16.021Z,0.21
2023-04-02T03:47:47.479Z,0.18
2023-04-02T03:48:18.966Z,0.22
2023-04-02T03:48:50.388Z,0.14
2023-04-02T03:49:21.792Z,0.15
2023-04-02T03:49:53.185Z,0.09
2023-04-02T03:50:24.585Z,0.05
2023-04-02T03:50:55.989Z,0.15
2023-04-02T03:51:27.398Z,0.15
2023-04-02T03:51:58.803Z,0.18
2023-04-02T03:52:30.209Z,0.32
2023-04-02T03:53:01.620Z,0.18
2023-04-02T03:53:33.178Z,0.20
2023-04-02T03:54:04.596Z,0.09
2023-04-02T03:54:35.997Z,0.15
2023-04-02T03:55:07.432Z,0.07
2023-04-02T03:55:38.872Z,0.12
2023-04-02T03:56:10.302Z,0.21
2023-04-02T03:56:41.704Z,0.18
2023-04-02T03:57:13.157Z,0.22
2023-04-02T03:57:44.584Z,0.14
2023-04-02T03:58:15.996Z,0.15
2023-04-02T03:58:47.416Z,0.10
2023-04-02T03:59:18.824Z,0.20
2023-04-02T03:59:50.222Z,0.10
2023-04-02T04:00:21.623Z,0.20
2023-04-02T04:00:53.057Z,0.14
2023-04-02T04:01:24.464Z,0.10
2023-04-02T04:01:56.073Z,0.13
2023-04-02T04:02:27.602Z,0.27
2023-04-02T04:02:59.131Z,0.35
2023-04-02T04:03:30.598Z,0.17
2023-04-02T04:04:02.050Z,0.50
2023-04-02T04:04:33.559Z,0.21
2023-04-02T04:05:04.985Z,0.28
2023-04-02T04:05:36.559Z,0.55
2023-04-02T04:06:08.164Z,0.26
2023-04-02T04:06:39.554Z,0.16
2023-04-02T04:07:10.952Z,0.19
2023-04-02T04:07:42.343Z,0.22
2023-04-02T04:08:13.788Z,0.16
2023-04-02T04:08:45.197Z,0.18
2023-04-02T04:09:16.580Z,0.15
2023-04-02T04:09:47.970Z,0.10
2023-04-02T04:10:19.403Z,0.20
2023-04-02T04:10:50.835Z,0.14
2023-04-02T04:11:22.280Z,0.15
2023-04-02T04:11:53.718Z,0.19
2023-04-02T04:12:25.127Z,0.24
2023-04-02T04:12:56.533Z,0.29
2023-04-02T04:13:27.921Z,0.16
2023-04-02T04:13:59.335Z,0.14
2023-04-02T04:14:30.757Z,0.21
2023-04-02T04:15:02.193Z,0.20
2023-04-02T04:15:33.772Z,0.09
2023-04-02T04:16:05.412Z,0.25
2023-04-02T04:16:36.898Z,0.12
2023-04-02T04:17:08.312Z,0.11
2023-04-02T04:17:39.745Z,0.08
2023-04-02T04:18:11.154Z,0.14
2023-04-02T04:18:42.556Z,0.12
2023-04-02T04:19:14.021Z,0.07
2023-04-02T04:19:45.574Z,0.35
2023-04-02T04:20:17.153Z,0.18
2023-04-02T04:20:48.543Z,0.18
2023-04-02T04:21:19.946Z,0.27
2023-04-02T04:21:51.373Z,0.24
2023-04-02T04:22:22.774Z,0.17
2023-04-02T04:22:54.157Z,0.09
2023-04-02T04:23:25.557Z,0.25
2023-04-02T04:23:56.983Z,0.15
2023-04-02T04:24:28.411Z,0.19
2023-04-02T04:24:59.821Z,0.22
2023-04-02T04:25:31.234Z,0.19
2023-04-02T04:26:02.651Z,0.17
2023-04-02T04:26:34.070Z,0.20
2023-04-02T04:27:05.481Z,0.16
2023-04-02T04:27:36.892Z,0.25
2023-04-02T04:28:08.292Z,0.14
2023-04-02T04:28:39.724Z,0.16
2023-04-02T04:29:11.134Z,0.20
2023-04-02T04:29:42.526Z,0.28
2023-04-02T04:30:13.922Z,0.11
2023-04-02T04:30:45.340Z,0.32
2023-04-02T04:31:16.750Z,0.26
2023-04-02T04:31:48.215Z,0.17
2023-04-02T04:32:19.771Z,0.07
2023-04-02T04:32:51.262Z,0.13
2023-04-02T04:33:22.670Z,0.25
2023-04-02T04:33:54.089Z,0.19
2023-04-02T04:34:25.499Z,0.13
2023-04-02T04:34:56.911Z,0.19
2023-04-02T04:35:28.333Z,0.15
2023-04-02T04:35:59.789Z,0.16
2023-04-02T04:36:31.296Z,0.12
2023-04-02T04:37:02.711Z,0.33
2023-04-02T04:37:34.133Z,0.26
2023-04-02T04:38:05.552Z,0.13
2023-04-02T04:38:36.957Z,0.12
2023-04-02T04:39:08.377Z,0.08
2023-04-02T04:39:39.783Z,0.20
2023-04-02T04:40:11.209Z,0.34
2023-04-02T04:40:42.614Z,0.21
2023-04-02T04:41:14.005Z,0.18
2023-04-02T04:41:45.411Z,0.30
2023-04-02T04:42:16.806Z,0.20
2023-04-02T04:42:48.211Z,0.22
2023-04-02T04:43:19.623Z,0.29
2023-04-02T04:43:51.019Z,0.28
2023-04-02T04:44:22.410Z,0.26
2023-04-02T04:44:53.819Z,0.16
2023-04-02T04:45:25.218Z,0.14
2023-04-02T04:45:56.679Z,0.31
2023-04-02T04:46:28.246Z,0.14
2023-04-02T04:46:59.804Z,0.16
2023-04-02T04:47:31.281Z,0.12
2023-04-02T04:48:02.779Z,0.16
2023-04-02T04:48:35.228Z,0.10
2023-04-02T04:49:07.761Z,0.18
2023-04-02T04:49:39.156Z,0.21
2023-04-02T04:50:10.565Z,0.15
2023-04-02T04:50:41.972Z,0.07
2023-04-02T04:51:13.395Z,0.23
2023-04-02T04:51:44.807Z,0.20
2023-04-02T04:52:16.217Z,0.24
2023-04-02T04:52:47.638Z,0.19
2023-04-02T04:53:19.047Z,0.18
2023-04-02T04:53:50.473Z,0.27
2023-04-02T04:54:21.924Z,0.24
2023-04-02T04:54:53.324Z,0.15
2023-04-02T04:55:24.739Z,0.10
2023-04-02T04:55:58.270Z,0.13
2023-04-02T04:56:32.887Z,0.09
2023-04-02T04:57:04.311Z,0.16
2023-04-02T04:57:35.715Z,0.21
2023-04-02T04:58:07.138Z,0.07
2023-04-02T04:58:38.530Z,0.68
2023-04-02T04:59:09.932Z,0.21
2023-04-02T04:59:41.366Z,0.19
2023-04-02T05:00:12.778Z,0.13
2023-04-02T05:00:44.213Z,0.07
2023-04-02T05:01:15.680Z,0.15
2023-04-02T05:01:47.130Z,0.04
2023-04-02T05:02:18.601Z,0.08
2023-04-02T05:02:50.054Z,0.16
2023-04-02T05:03:21.546Z,0.11
2023-04-02T05:03:52.955Z,0.11
2023-04-02T05:04:24.425Z,0.14
2023-04-02T05:04:55.895Z,0.07
2023-04-02T05:05:27.350Z,0.16
2023-04-02T05:05:58.746Z,0.18
2023-04-02T05:06:30.145Z,0.28
2023-04-02T05:07:01.542Z,0.21
2023-04-02T05:07:32.934Z,0.26
2023-04-02T05:08:04.354Z,0.19
2023-04-02T05:08:35.775Z,0.33
2023-04-02T05:09:07.237Z,0.15
2023-04-02T05:09:38.682Z,0.37
2023-04-02T05:10:10.113Z,0.11
2023-04-02T05:10:41.539Z,0.13
2023-04-02T05:11:12.934Z,0.09
2023-04-02T05:11:44.326Z,0.20
2023-04-02T05:12:15.741Z,0.25
2023-04-02T05:12:47.157Z,0.23
2023-04-02T05:13:18.580Z,0.16
2023-04-02T05:13:49.989Z,0.17
2023-04-02T05:14:21.402Z,0.12
2023-04-02T05:14:52.822Z,0.11
2023-04-02T05:15:24.250Z,0.42
2023-04-02T05:15:55.720Z,0.15
2023-04-02T05:16:27.225Z,0.18
2023-04-02T05:16:58.750Z,0.34
2023-04-02T05:17:30.173Z,0.16
2023-04-02T05:18:01.731Z,0.12
2023-04-02T05:18:33.194Z,0.64
2023-04-02T05:19:04.608Z,0.31
2023-04-02T05:19:36.012Z,0.32
2023-04-02T05:20:07.428Z,0.31
2023-04-02T05:20:38.860Z,0.20
2023-04-02T05:21:10.271Z,0.15
2023-04-02T05:21:41.682Z,0.28
2023-04-02T05:22:13.095Z,0.16
2023-04-02T05:22:44.499Z,0.17
2023-04-02T05:23:15.899Z,0.17
2023-04-02T05:23:47.298Z,0.19
2023-04-02T05:24:18.711Z,0.15
2023-04-02T05:24:50.122Z,0.05
2023-04-02T05:25:21.544Z,0.29
2023-04-02T05:25:52.965Z,0.33
2023-04-02T05:26:24.386Z,0.14
2023-04-02T05:26:55.800Z,0.22
2023-04-02T05:27:27.230Z,0.13
2023-04-02T05:27:58.634Z,0.21
2023-04-02T05:28:30.038Z,0.08
2023-04-02T05:29:01.429Z,0.16
2023-04-02T05:29:32.849Z,0.24
2023-04-02T05:30:04.246Z,0.20
2023-04-02T05:30:35.695Z,0.32
2023-04-02T05:31:07.138Z,0.09
2023-04-02T05:31:38.608Z,0.07
2023-04-02T05:32:10.007Z,0.20
2023-04-02T05:32:41.487Z,0.07
2023-04-02T05:33:12.938Z,0.15
2023-04-02T05:33:44.350Z,0.29
2023-04-02T05:34:15.753Z,0.08
2023-04-02T05:34:47.164Z,0.14
2023-04-02T05:35:18.562Z,0.13
2023-04-02T05:35:50.024Z,0.16
2023-04-02T05:36:21.649Z,0.14
2023-04-02T05:36:53.149Z,0.12
2023-04-02T05:37:24.540Z,0.13
2023-04-02T05:37:55.945Z,0.10
2023-04-02T05:38:27.342Z,0.25
2023-04-02T05:38:58.740Z,0.27
2023-04-02T05:39:30.163Z,0.15
2023-04-02T05:40:01.610Z,0.04
2023-04-02T05:40:33.020Z,0.25
2023-04-02T05:41:04.452Z,0.14
2023-04-02T05:41:35.898Z,0.16
2023-04-02T05:42:07.287Z,0.15
2023-04-02T05:42:38.693Z,0.22
2023-04-02T05:43:10.123Z,0.27
2023-04-02T05:43:41.529Z,0.31
2023-04-02T05:44:12.947Z,0.12
2023-04-02T05:44:44.365Z,0.05
2023-04-02T05:45:15.765Z,0.17
2023-04-02T05:45:47.183Z,0.18
2023-04-02T05:46:18.724Z,0.31
2023-04-02T05:46:50.332Z,0.33
2023-04-02T05:47:21.800Z,0.17
2023-04-02T05:47:53.285Z,0.19
2023-04-02T05:48:24.735Z,0.11
2023-04-02T05:48:56.158Z,0.16
2023-04-02T05:49:27.572Z,0.33
2023-04-02T05:49:58.981Z,0.26
2023-04-02T05:50:30.372Z,0.40
2023-04-02T05:51:01.784Z,0.20
2023-04-02T05:51:33.177Z,0.16
2023-04-02T05:52:04.572Z,0.14
2023-04-02T05:52:35.998Z,0.11
2023-04-02T05:53:07.467Z,0.20
2023-04-02T05:53:38.873Z,0.18
2023-04-02T05:54:10.268Z,0.25
2023-04-02T05:54:41.676Z,0.24
2023-04-02T05:55:13.102Z,0.16
2023-04-02T05:55:44.528Z,0.26
2023-04-02T05:56:15.994Z,0.13
2023-04-02T05:56:47.632Z,0.14
2023-04-02T05:57:19.429Z,0.19
2023-04-02T05:58:04.371Z,0.28
2023-04-02T05:58:45.373Z,0.33
2023-04-02T05:59:17.128Z,0.22
2023-04-02T05:59:48.553Z,0.11
2023-04-02T06:00:19.975Z,0.26
2023-04-02T06:00:51.392Z,0.18
2023-04-02T06:01:22.860Z,0.14
2023-04-02T06:01:54.271Z,0.22
2023-04-02T06:02:25.771Z,0.28
2023-04-02T06:02:57.283Z,0.20
2023-04-02T06:03:28.819Z,0.22
2023-04-02T06:04:00.367Z,0.22
2023-04-02T06:04:31.863Z,0.21
2023-04-02T06:05:03.305Z,0.28
2023-04-02T06:05:34.919Z,0.16
2023-04-02T06:06:06.434Z,0.06
2023-04-02T06:06:37.846Z,0.13
2023-04-02T06:07:09.254Z,0.22
2023-04-02T06:07:40.750Z,0.34
2023-04-02T06:08:12.152Z,0.34
2023-04-02T06:08:43.556Z,0.16
2023-04-02T06:09:14.961Z,0.29
2023-04-02T06:09:46.373Z,0.19
2023-04-02T06:10:17.887Z,0.29
2023-04-02T06:10:49.381Z,0.29
2023-04-02T06:11:20.804Z,0.42
2023-04-02T06:11:52.233Z,0.29
2023-04-02T06:12:23.644Z,0.35
2023-04-02T06:12:55.068Z,0.28
2023-04-02T06:13:26.508Z,0.20
2023-04-02T06:13:57.898Z,0.16
2023-04-02T06:14:29.326Z,0.25
2023-04-02T06:15:00.767Z,0.23
2023-04-02T06:15:32.215Z,0.12
2023-04-02T06:16:03.620Z,0.28
2023-04-02T06:16:35.193Z,0.49
2023-04-02T06:17:06.609Z,0.28
2023-04-02T06:17:38.038Z,0.29
2023-04-02T06:18:09.521Z,0.23
2023-04-02T06:18:40.940Z,0.26
2023-04-02T06:19:12.335Z,0.24
2023-04-02T06:19:43.777Z,0.22
2023-04-02T06:20:15.171Z,0.19
2023-04-02T06:20:46.571Z,0.13
2023-04-02T06:21:17.985Z,0.19
2023-04-02T06:21:49.409Z,0.15
2023-04-02T06:22:20.820Z,0.10
2023-04-02T06:22:52.227Z,0.23
2023-04-02T06:23:23.609Z,0.28
2023-04-02T06:23:55.027Z,0.26
2023-04-02T06:24:26.435Z,0.22
2023-04-02T06:24:57.853Z,0.19
2023-04-02T06:25:29.274Z,0.22
2023-04-02T06:26:00.693Z,0.15
2023-04-02T06:26:32.106Z,0.16
2023-04-02T06:27:03.583Z,0.25
2023-04-02T06:27:35.021Z,0.18
2023-04-02T06:28:06.410Z,0.22
2023-04-02T06:28:37.825Z,0.26
2023-04-02T06:29:09.236Z,0.35
2023-04-02T06:29:40.661Z,0.31
2023-04-02T06:30:12.073Z,0.35
2023-04-02T06:30:43.495Z,0.32
2023-04-02T06:31:14.954Z,0.29
2023-04-02T06:31:47.908Z,0.44
2023-04-02T06:32:20.816Z,0.18
2023-04-02T06:32:52.276Z,0.21
2023-04-02T06:33:23.719Z,0.48
2023-04-02T06:33:55.142Z,0.34
2023-04-02T06:34:26.547Z,0.51
2023-04-02T06:34:58.001Z,0.43
2023-04-02T06:35:29.399Z,0.31
2023-04-02T06:36:00.858Z,0.33
2023-04-02T06:36:32.264Z,0.52
2023-04-02T06:37:03.708Z,0.48
2023-04-02T06:37:35.119Z,0.54
2023-04-02T06:38:06.522Z,0.42
2023-04-02T06:38:37.933Z,0.63
2023-04-02T06:39:09.364Z,0.63
2023-04-02T06:39:40.757Z,0.31
2023-04-02T06:40:12.149Z,0.64
2023-04-02T06:40:43.590Z,0.76
2023-04-02T06:41:14.991Z,1.15
2023-04-02T06:41:46.388Z,1.14
2023-04-02T06:42:17.838Z,0.51
2023-04-02T06:42:49.242Z,0.55
2023-04-02T06:43:20.642Z,0.88
2023-04-02T06:43:52.050Z,0.62
2023-04-02T06:44:23.454Z,0.87
2023-04-02T06:44:54.895Z,0.69
2023-04-02T06:45:26.312Z,0.50
2023-04-02T06:45:57.764Z,0.66
2023-04-02T06:46:29.261Z,0.65
2023-04-02T06:47:00.751Z,0.76
2023-04-02T06:47:32.230Z,1.10
2023-04-02T06:48:03.695Z,1.00
2023-04-02T06:48:35.234Z,0.91
2023-04-02T06:49:06.649Z,0.86
2023-04-02T06:49:38.060Z,0.91
2023-04-02T06:50:09.503Z,0.91
2023-04-02T06:50:40.908Z,0.67
2023-04-02T06:51:12.319Z,0.58
2023-04-02T06:51:43.726Z,0.58
2023-04-02T06:52:15.139Z,0.72
2023-04-02T06:52:46.577Z,0.75
2023-04-02T06:53:18.063Z,0.68
2023-04-02T06:53:49.486Z,0.67
2023-04-02T06:54:20.917Z,0.83
2023-04-02T06:54:52.432Z,0.99
2023-04-02T06:55:23.916Z,0.92
2023-04-02T06:55:55.396Z,0.89
2023-04-02T06:56:26.798Z,0.86
2023-04-02T06:56:58.228Z,0.81
2023-04-02T06:57:29.715Z,0.60
2023-04-02T06:58:01.224Z,0.65
2023-04-02T06:58:32.634Z,0.32
2023-04-02T06:59:04.048Z,1.00